Main page


Airports :

Balad, Iraq

Balad Air Base

latitude: 33-56N, longitude: 44-22E, elevation: 49 m

Current weather observation

The report was made 42 minutes ago, at 03:55 UTC
Wind 7 kt from the West
Temperature 10°C
Humidity 82%
Pressure 1013 hPa
Visibility 10 km or more
Clear sky

METAR: ORBD 170355Z 27007KT 9999 CLR 10/07 A2992 RMK WND DATA ALSTG ESTMD

Time: 07:37 (04:37 UTC)


The report was made 1 hour and 52 minutes ago, at 02:45 UTC
Forecast valid from 17 at 03 UTC to 18 at 09 UTC
Wind 8 kt from the West/Northwest
Visibility 10 km or more
Clear sky
from 17 at 03 UTC to 17 at 07 UTC
Visibility: 6000 m
Few clouds at a height of 2000 ft
Few clouds at a height of 2000 ft
haze, smoke
from 17 at 08 UTC to 17 at 10 UTC
Wind 12 kt from the Northwest, varying between West and North
Visibility: 9000 m
Clear sky

TAF: ORBD 170245Z 1703/1809 30008KT 9999 SKC QNH2988INS TEMPO 1703/1707 6000 HZ FEW020 FU FEW020 BECMG 1708/1710 31012KT 9000 HZ SKC QNH2991INS WND 270V360 TX24/1712Z TN09/1703Z

Weather observations and forecasts of more than 4000 airports (METAR and TAF reports).

The available stations are represented by yellow and red dots on the map.

Hover mouse over dot to see the name of the station.

Then click to see weather observations and forecasts.

To change the map : click on the green buttons with a black cross to zoom in, on the green button with a dash to zoom out, or on the green arrows for adjacent maps.